Maratha Promise — V7YE5 — position and weather

sailwx.info

Track history (hours):
 
Tides and Currents Weather Stations Pressure Air Temp Water Temp Dewpoint Dewpoint Depression Visibility Wind Speed Wind Dir Waves Ship Positions

Maratha Promise

Last reported at 2015-Aug-30 13:31 UTC. Time now 2015-Sep-02 21:42 UTC.
Position N 03°01' E 100°49'.

Length 178 m; draft 11.1 m.

Type: Cargo ship. MMSI: 538004641.

Date/timePositionNaut miles runAvg speedWind from/ knotsBaromVisibWave heightAir tempDewpointWater temp
2015-Aug-30 13:31N 03°01' E 100°49'2110.7
2015-Aug-30 11:33N 02°48' E 101°05'13 9.3
2015-Aug-30 10:08N 02°42' E 101°17'5 9.1
2015-Aug-30 09:33N 02°39' E 101°21'2211.0
2015-Aug-30 07:32N 02°27' E 101°40'14110.8
2015-Aug-29 18:30N 01°11' E 103°39'8 8.0
2015-Aug-29 17:33N 01°10' E 103°47'8 8.4
2015-Aug-29 16:33N 01°13' E 103°54'6 6.3
2015-Aug-29 15:32N 01°17' E 103°59'0 0.1
2015-Aug-29 14:28N 01°17' E 103°59'0 0.1
2015-Aug-29 13:28N 01°17' E 103°59'0 0.0
2015-Aug-29 12:31N 01°17' E 103°59'0 0.1
2015-Aug-29 11:28N 01°17' E 103°59'0 0.1
2015-Aug-29 10:22N 01°17' E 103°59'0 0.1
2015-Aug-29 09:31N 01°17' E 103°59'0 0.0
2015-Aug-29 08:31N 01°17' E 103°59'0 0.0
2015-Aug-29 07:25N 01°17' E 103°59'0 0.0
2015-Aug-29 06:28N 01°17' E 103°59'0 0.0
2015-Aug-29 04:16N 01°17' E 103°59'0 0.1
2015-Aug-29 03:28N 01°17' E 103°59'0 0.0
2015-Aug-29 02:28N 01°17' E 103°59'0 0.0
2015-Aug-29 01:28N 01°17' E 103°59'0 0.1
2015-Aug-28 23:22N 01°17' E 103°59'0 0.0
2015-Aug-28 22:32N 01°17' E 103°59'3 2.7
2015-Aug-28 21:33N 01°16' E 104°01'  
Track history (hours):
 
Tides and Currents Weather Stations Pressure Air Temp Water Temp Dewpoint Dewpoint Depression Visibility Wind Speed Wind Dir Waves Ship Positions

Maratha Promise

Last reported at 2015-Aug-30 13:31 UTC. Time now 2015-Sep-02 21:42 UTC.
Position N 03°01' E 100°49'.

Length 178 m; draft 11.1 m.

Type: Cargo ship. MMSI: 538004641.

Date/timePositionNaut miles runAvg speedWind from/ knotsBaromVisibWave heightAir tempDewpointWater temp
2015-Aug-30 13:31N 03°01' E 100°49'2110.7
2015-Aug-30 11:33N 02°48' E 101°05'13 9.3
2015-Aug-30 10:08N 02°42' E 101°17'5 9.1
2015-Aug-30 09:33N 02°39' E 101°21'2211.0
2015-Aug-30 07:32N 02°27' E 101°40'14110.8
2015-Aug-29 18:30N 01°11' E 103°39'8 8.0
2015-Aug-29 17:33N 01°10' E 103°47'8 8.4
2015-Aug-29 16:33N 01°13' E 103°54'6 6.3
2015-Aug-29 15:32N 01°17' E 103°59'0 0.1
2015-Aug-29 14:28N 01°17' E 103°59'0 0.1
2015-Aug-29 13:28N 01°17' E 103°59'0 0.0
2015-Aug-29 12:31N 01°17' E 103°59'0 0.1
2015-Aug-29 11:28N 01°17' E 103°59'0 0.1
2015-Aug-29 10:22N 01°17' E 103°59'0 0.1
2015-Aug-29 09:31N 01°17' E 103°59'0 0.0
2015-Aug-29 08:31N 01°17' E 103°59'0 0.0
2015-Aug-29 07:25N 01°17' E 103°59'0 0.0
2015-Aug-29 06:28N 01°17' E 103°59'0 0.0
2015-Aug-29 04:16N 01°17' E 103°59'0 0.1
2015-Aug-29 03:28N 01°17' E 103°59'0 0.0
2015-Aug-29 02:28N 01°17' E 103°59'0 0.0
2015-Aug-29 01:28N 01°17' E 103°59'0 0.1
2015-Aug-28 23:22N 01°17' E 103°59'0 0.0
2015-Aug-28 22:32N 01°17' E 103°59'3 2.7
2015-Aug-28 21:33N 01°16' E 104°01'  

Dump ship's entire track history